createdAt,value
2023-01-17T00:02:14.094Z,5.11
2023-01-17T00:04:55.304Z,5.12
2023-01-17T00:07:39.006Z,5.27
2023-01-17T00:10:07.392Z,5.20
2023-01-17T00:12:31.607Z,5.22
2023-01-17T00:14:56.142Z,5.36
2023-01-17T00:17:18.729Z,5.30
2023-01-17T00:19:59.661Z,5.19
2023-01-17T00:22:46.906Z,5.29
2023-01-17T00:25:33.984Z,5.29
2023-01-17T00:27:57.115Z,5.27
2023-01-17T00:30:19.751Z,5.25
2023-01-17T00:32:42.421Z,5.22
2023-01-17T00:35:05.439Z,5.13
2023-01-17T00:37:28.100Z,5.05
2023-01-17T00:39:50.934Z,5.11
2023-01-17T00:42:13.467Z,5.04
2023-01-17T00:44:54.782Z,5.16
2023-01-17T00:47:35.710Z,5.27
2023-01-17T00:50:16.797Z,5.27
2023-01-17T00:52:58.450Z,5.13
2023-01-17T00:55:39.633Z,5.08
2023-01-17T00:58:27.654Z,5.02
2023-01-17T01:01:08.986Z,5.00
2023-01-17T01:03:50.522Z,5.04
2023-01-17T01:06:31.895Z,5.05
2023-01-17T01:09:13.366Z,5.19
2023-01-17T01:11:55.850Z,5.25
2023-01-17T01:14:37.330Z,5.43
2023-01-17T01:17:19.007Z,5.37
2023-01-17T01:20:05.199Z,5.48
2023-01-17T01:22:46.256Z,5.63
2023-01-17T01:25:27.656Z,5.68
2023-01-17T01:28:08.788Z,5.61
2023-01-17T01:30:50.465Z,5.51
2023-01-17T01:33:20.875Z,5.56
2023-01-17T01:35:43.651Z,5.61
2023-01-17T01:38:06.370Z,5.60
2023-01-17T01:40:29.093Z,5.51
2023-01-17T01:42:56.758Z,5.39
2023-01-17T01:45:25.228Z,5.33
2023-01-17T01:47:49.963Z,5.33
2023-01-17T01:50:13.253Z,5.33
2023-01-17T01:52:43.298Z,5.29
2023-01-17T01:55:11.777Z,5.25
2023-01-17T01:57:40.926Z,5.29
2023-01-17T02:00:26.411Z,5.33
2023-01-17T02:02:50.248Z,5.30
2023-01-17T02:05:15.886Z,5.32
2023-01-17T02:07:46.155Z,5.44
2023-01-17T02:10:09.846Z,5.46
2023-01-17T02:12:32.543Z,5.51
2023-01-17T02:14:55.651Z,5.53
2023-01-17T02:17:47.303Z,5.37
2023-01-17T02:20:28.595Z,5.42
2023-01-17T02:23:36.313Z,5.46
2023-01-17T02:26:18.525Z,5.54
2023-01-17T02:28:48.140Z,5.54
2023-01-17T02:31:44.618Z,5.64
2023-01-17T02:34:20.152Z,5.67
2023-01-17T02:37:06.725Z,5.65
2023-01-17T02:39:37.299Z,5.60
2023-01-17T02:42:11.338Z,5.68
2023-01-17T02:44:44.283Z,5.64
2023-01-17T02:47:23.569Z,5.61
2023-01-17T02:49:46.290Z,5.63
2023-01-17T02:52:38.305Z,5.68
2023-01-17T02:55:07.214Z,5.70
2023-01-17T02:57:41.836Z,5.71
2023-01-17T03:00:31.914Z,5.79
2023-01-17T03:03:02.355Z,5.74
2023-01-17T03:05:46.319Z,5.78
2023-01-17T03:08:11.114Z,5.83
2023-01-17T03:10:36.027Z,5.99
2023-01-17T03:13:00.223Z,6.05
2023-01-17T03:15:22.788Z,6.01
2023-01-17T03:17:49.611Z,6.01
2023-01-17T03:20:13.071Z,5.94
2023-01-17T03:22:35.807Z,5.83
2023-01-17T03:24:58.413Z,5.75
2023-01-17T03:27:20.975Z,5.73
2023-01-17T03:29:43.647Z,5.74
2023-01-17T03:32:06.514Z,5.91
2023-01-17T03:34:29.487Z,5.92
2023-01-17T03:36:52.200Z,6.04
2023-01-17T03:39:14.849Z,6.02
2023-01-17T03:41:37.740Z,6.04
2023-01-17T03:44:00.983Z,5.99
2023-01-17T03:46:25.805Z,6.01
2023-01-17T03:48:48.952Z,5.90
2023-01-17T03:51:11.652Z,6.02
2023-01-17T03:53:34.818Z,5.99
2023-01-17T03:55:57.368Z,6.05
2023-01-17T03:58:20.351Z,6.12
2023-01-17T04:00:43.320Z,6.19
2023-01-17T04:03:05.986Z,6.12
2023-01-17T04:05:28.694Z,6.04
2023-01-17T04:07:51.832Z,5.97
2023-01-17T04:10:14.836Z,6.15
2023-01-17T04:12:38.271Z,6.06
2023-01-17T04:15:00.788Z,6.09
2023-01-17T04:17:23.369Z,6.25
2023-01-17T04:19:46.429Z,6.25
2023-01-17T04:22:09.017Z,6.33
2023-01-17T04:24:31.571Z,6.28
2023-01-17T04:26:54.165Z,6.26
2023-01-17T04:29:16.889Z,6.18
2023-01-17T04:31:39.545Z,6.26
2023-01-17T04:34:02.986Z,6.29
2023-01-17T04:36:25.528Z,6.18
2023-01-17T04:38:48.134Z,6.25
2023-01-17T04:41:10.732Z,6.32
2023-01-17T04:43:33.507Z,6.37
2023-01-17T04:45:57.028Z,6.47
2023-01-17T04:48:19.754Z,6.53
2023-01-17T04:50:42.483Z,6.58
2023-01-17T04:53:05.384Z,6.51
2023-01-17T04:55:27.957Z,6.60
2023-01-17T04:57:50.743Z,6.64
2023-01-17T05:00:14.158Z,6.61
2023-01-17T05:02:36.870Z,6.64
2023-01-17T05:04:59.470Z,6.64
2023-01-17T05:07:22.097Z,6.69
2023-01-17T05:09:44.721Z,6.63
2023-01-17T05:12:07.378Z,6.71
2023-01-17T05:14:29.926Z,6.77
2023-01-17T05:16:56.699Z,6.74
2023-01-17T05:19:20.945Z,6.78
2023-01-17T05:21:43.688Z,6.60
2023-01-17T05:24:06.669Z,6.47
2023-01-17T05:26:29.349Z,6.47
2023-01-17T05:28:52.034Z,6.54
2023-01-17T05:31:15.013Z,6.51
2023-01-17T05:33:37.595Z,6.46
2023-01-17T05:36:00.223Z,6.42
2023-01-17T05:38:23.766Z,6.25
2023-01-17T05:40:46.411Z,6.23
2023-01-17T05:43:09.143Z,6.25
2023-01-17T05:45:33.390Z,6.25
2023-01-17T05:47:57.347Z,6.25
2023-01-17T05:50:23.042Z,6.30
2023-01-17T05:53:09.826Z,6.37
2023-01-17T05:55:33.205Z,6.37
2023-01-17T05:57:56.700Z,6.40
2023-01-17T06:00:20.463Z,6.37
2023-01-17T06:02:43.892Z,6.34
2023-01-17T06:05:06.917Z,6.23
2023-01-17T06:07:29.498Z,6.19
2023-01-17T06:09:52.172Z,6.21
2023-01-17T06:12:14.831Z,6.25
2023-01-17T06:14:37.584Z,6.25
2023-01-17T06:17:00.182Z,6.26
2023-01-17T06:19:22.928Z,6.26
2023-01-17T06:21:45.452Z,6.29
2023-01-17T06:24:08.187Z,6.23
2023-01-17T06:26:31.286Z,6.22
2023-01-17T06:28:53.987Z,6.25
2023-01-17T06:31:16.690Z,6.15
2023-01-17T06:33:39.449Z,6.15
2023-01-17T06:36:02.238Z,6.01
2023-01-17T06:38:27.359Z,6.11
2023-01-17T06:40:50.131Z,6.19
2023-01-17T06:43:13.227Z,6.13
2023-01-17T06:45:41.860Z,6.05
2023-01-17T06:48:05.521Z,6.05
2023-01-17T06:50:28.327Z,6.02
2023-01-17T06:53:05.432Z,6.01
2023-01-17T06:55:29.579Z,5.94
2023-01-17T06:57:52.471Z,5.84
2023-01-17T07:00:16.040Z,5.77
2023-01-17T07:02:38.953Z,5.78
2023-01-17T07:05:01.611Z,5.73
2023-01-17T07:07:25.030Z,5.74
2023-01-17T07:09:48.004Z,5.56
2023-01-17T07:12:10.799Z,5.60
2023-01-17T07:14:33.486Z,5.67
2023-01-17T07:16:56.851Z,5.64
2023-01-17T07:19:19.682Z,5.53
2023-01-17T07:21:42.270Z,5.50
2023-01-17T07:24:05.440Z,5.47
2023-01-17T07:26:31.035Z,5.53
2023-01-17T07:28:53.653Z,5.54
2023-01-17T07:31:16.301Z,5.50
2023-01-17T07:33:39.195Z,5.51
2023-01-17T07:36:09.463Z,5.64
2023-01-17T07:38:32.372Z,5.68
2023-01-17T07:41:04.418Z,5.92
2023-01-17T07:43:27.488Z,6.21
2023-01-17T07:45:50.919Z,6.37
2023-01-17T07:48:13.935Z,6.26
2023-01-17T07:50:37.152Z,6.06
2023-01-17T07:52:59.900Z,5.92
2023-01-17T07:55:22.856Z,5.97
2023-01-17T07:57:49.811Z,5.99
2023-01-17T08:00:12.974Z,6.04
2023-01-17T08:02:35.705Z,6.13
2023-01-17T08:04:58.895Z,6.16
2023-01-17T08:07:21.723Z,6.02
2023-01-17T08:09:44.836Z,5.79
2023-01-17T08:12:07.749Z,5.57
2023-01-17T08:14:30.474Z,5.37
2023-01-17T08:16:53.449Z,5.37
2023-01-17T08:19:17.209Z,5.33
2023-01-17T08:21:40.088Z,5.32
2023-01-17T08:24:02.671Z,5.25
2023-01-17T08:26:25.332Z,5.36
2023-01-17T08:28:56.708Z,5.40
2023-01-17T08:31:19.966Z,5.50
2023-01-17T08:33:42.703Z,5.65
2023-01-17T08:36:05.809Z,5.84
2023-01-17T08:38:28.547Z,6.06
2023-01-17T08:40:51.608Z,6.25
2023-01-17T08:43:14.603Z,6.34
2023-01-17T08:45:37.656Z,6.28
2023-01-17T08:48:00.799Z,6.26
2023-01-17T08:50:25.014Z,6.33
2023-01-17T08:52:51.078Z,6.46
2023-01-17T08:55:13.797Z,6.43
2023-01-17T08:57:36.696Z,6.26
2023-01-17T08:59:59.677Z,6.37
2023-01-17T09:02:24.840Z,6.36
2023-01-17T09:04:50.203Z,6.34
2023-01-17T09:07:14.086Z,6.53
2023-01-17T09:09:36.874Z,6.56
2023-01-17T09:11:59.784Z,6.46
2023-01-17T09:14:22.483Z,6.53
2023-01-17T09:16:45.229Z,6.56
2023-01-17T09:19:09.826Z,6.74
2023-01-17T09:21:32.631Z,6.85
2023-01-17T09:23:55.941Z,6.81
2023-01-17T09:26:22.497Z,6.98
2023-01-17T09:28:45.376Z,7.07
2023-01-17T09:31:08.847Z,6.98
2023-01-17T09:33:32.000Z,6.87
2023-01-17T09:35:54.879Z,7.01
2023-01-17T09:38:17.674Z,7.08
2023-01-17T09:40:47.543Z,7.26
2023-01-17T09:43:34.301Z,7.25
2023-01-17T09:45:57.482Z,7.08
2023-01-17T09:48:38.759Z,7.20
2023-01-17T09:51:09.154Z,7.35
2023-01-17T09:53:35.684Z,7.40
2023-01-17T09:56:05.818Z,7.40
2023-01-17T09:59:07.381Z,7.45
2023-01-17T10:02:13.940Z,7.42
2023-01-17T10:04:42.384Z,7.40
2023-01-17T10:07:31.638Z,7.47
2023-01-17T10:09:54.945Z,7.50
2023-01-17T10:12:45.679Z,7.69
2023-01-17T10:15:37.538Z,7.80
2023-01-17T10:18:37.790Z,7.97
2023-01-17T10:21:17.155Z,7.95
2023-01-17T10:24:17.903Z,7.91
2023-01-17T10:26:42.100Z,7.74
2023-01-17T10:29:12.274Z,7.87
2023-01-17T10:31:43.684Z,7.84
2023-01-17T10:34:21.465Z,7.93
2023-01-17T10:36:50.254Z,8.09
2023-01-17T10:39:23.878Z,7.87
2023-01-17T10:42:07.478Z,7.95
2023-01-17T10:44:49.047Z,7.91
2023-01-17T10:47:11.933Z,7.98
2023-01-17T10:49:38.014Z,8.02
2023-01-17T10:52:09.061Z,8.12
2023-01-17T10:55:04.110Z,7.88
2023-01-17T10:57:28.027Z,7.99
2023-01-17T10:59:51.582Z,8.09
2023-01-17T11:02:29.319Z,8.11
2023-01-17T11:04:55.860Z,8.25
2023-01-17T11:07:27.306Z,8.43
2023-01-17T11:09:52.965Z,8.49
2023-01-17T11:12:40.759Z,8.52
2023-01-17T11:15:06.580Z,8.57
2023-01-17T11:17:30.583Z,8.50
2023-01-17T11:19:54.599Z,8.41
2023-01-17T11:22:18.106Z,8.25
2023-01-17T11:24:47.359Z,8.49
2023-01-17T11:27:28.484Z,8.38
2023-01-17T11:30:03.001Z,8.60
2023-01-17T11:32:32.898Z,8.45
2023-01-17T11:35:09.777Z,8.43
2023-01-17T11:37:34.175Z,8.35
2023-01-17T11:40:39.996Z,8.54
2023-01-17T11:43:18.962Z,8.28
2023-01-17T11:45:41.994Z,8.09
2023-01-17T11:48:11.090Z,8.14
2023-01-17T11:50:35.694Z,8.32
2023-01-17T11:53:25.769Z,8.09
2023-01-17T11:55:57.653Z,8.09
2023-01-17T11:58:24.147Z,8.21
2023-01-17T12:01:02.318Z,8.25
2023-01-17T12:03:59.872Z,8.38
2023-01-17T12:06:56.185Z,8.46
2023-01-17T12:09:30.391Z,8.54
2023-01-17T12:12:35.523Z,8.56
2023-01-17T12:15:03.091Z,8.52
2023-01-17T12:17:46.666Z,8.59
2023-01-17T12:20:24.224Z,8.66
2023-01-17T12:23:05.680Z,8.57
2023-01-17T12:25:37.516Z,8.54
2023-01-17T12:28:41.960Z,8.80
2023-01-17T12:31:16.289Z,8.83
2023-01-17T12:34:17.648Z,9.01
2023-01-17T12:36:48.530Z,9.11
2023-01-17T12:39:14.852Z,9.03
2023-01-17T12:41:59.971Z,9.01
2023-01-17T12:44:51.699Z,9.15
2023-01-17T12:47:16.167Z,9.04
2023-01-17T12:49:46.522Z,8.94
2023-01-17T12:52:32.043Z,8.98
2023-01-17T12:55:05.767Z,8.98
2023-01-17T12:57:35.448Z,8.83
2023-01-17T13:00:13.568Z,8.96
2023-01-17T13:02:38.691Z,8.71
2023-01-17T13:05:05.970Z,8.64
2023-01-17T13:07:35.240Z,8.66
2023-01-17T13:10:35.591Z,8.46
2023-01-17T13:13:03.314Z,8.36
2023-01-17T13:15:32.512Z,8.18
2023-01-17T13:18:14.248Z,8.14
2023-01-17T13:20:52.927Z,8.14
2023-01-17T13:23:21.761Z,8.08
2023-01-17T13:25:50.791Z,7.97
2023-01-17T13:28:35.077Z,7.95
2023-01-17T13:31:27.843Z,7.93
2023-01-17T13:34:24.664Z,7.84
2023-01-17T13:37:09.738Z,7.81
2023-01-17T13:39:33.230Z,7.73
2023-01-17T13:42:15.018Z,7.66
2023-01-17T13:44:38.044Z,7.62
2023-01-17T13:47:04.388Z,7.59
2023-01-17T13:49:30.318Z,7.53
2023-01-17T13:52:18.848Z,7.52
2023-01-17T13:54:48.519Z,7.49
2023-01-17T13:57:28.615Z,7.36
2023-01-17T13:59:53.914Z,7.33
2023-01-17T14:02:36.028Z,7.25
2023-01-17T14:05:24.064Z,7.19
2023-01-17T14:07:52.531Z,7.16
2023-01-17T14:10:38.257Z,7.15
2023-01-17T14:13:02.093Z,7.16
2023-01-17T14:15:33.768Z,7.15
2023-01-17T14:18:00.184Z,7.12
2023-01-17T14:20:25.890Z,7.11
2023-01-17T14:22:57.961Z,7.08
2023-01-17T14:25:29.725Z,7.11
2023-01-17T14:27:56.547Z,7.08
2023-01-17T14:30:29.026Z,7.05
2023-01-17T14:33:10.092Z,7.11
2023-01-17T14:35:48.281Z,7.07
2023-01-17T14:38:20.366Z,7.02
2023-01-17T14:41:00.880Z,6.97
2023-01-17T14:43:25.971Z,6.94
2023-01-17T14:45:49.491Z,6.99
2023-01-17T14:48:14.990Z,6.95
2023-01-17T14:50:41.260Z,6.92
2023-01-17T14:53:12.771Z,6.92
2023-01-17T14:55:35.511Z,6.95
2023-01-17T14:57:58.281Z,6.88
2023-01-17T15:00:22.185Z,6.92
2023-01-17T15:02:46.520Z,6.91
2023-01-17T15:05:13.396Z,6.88
2023-01-17T15:07:36.876Z,6.94
2023-01-17T15:09:59.562Z,6.91
2023-01-17T15:12:22.177Z,6.90
2023-01-17T15:14:46.593Z,6.88
2023-01-17T15:17:29.415Z,6.87
2023-01-17T15:19:57.759Z,6.85
2023-01-17T15:22:20.703Z,6.85
2023-01-17T15:24:44.763Z,6.84
2023-01-17T15:27:07.896Z,6.87
2023-01-17T15:29:35.195Z,6.87
2023-01-17T15:32:03.343Z,6.88
2023-01-17T15:34:30.365Z,6.90
2023-01-17T15:36:54.300Z,6.87
2023-01-17T15:39:23.155Z,6.87
2023-01-17T15:41:47.619Z,6.90
2023-01-17T15:44:31.115Z,6.85
2023-01-17T15:46:58.737Z,6.90
2023-01-17T15:49:24.191Z,6.91
2023-01-17T15:51:53.981Z,6.90
2023-01-17T15:54:28.596Z,6.92
2023-01-17T15:57:28.852Z,6.90
2023-01-17T16:00:14.887Z,6.97
2023-01-17T16:02:55.427Z,6.92
2023-01-17T16:05:30.808Z,6.91
2023-01-17T16:08:02.697Z,6.91
2023-01-17T16:10:28.799Z,6.91
2023-01-17T16:12:53.796Z,6.92
2023-01-17T16:15:18.376Z,6.94
2023-01-17T16:17:45.550Z,6.91
2023-01-17T16:20:19.439Z,6.85
2023-01-17T16:22:44.924Z,6.76
2023-01-17T16:25:33.750Z,6.74
2023-01-17T16:28:03.611Z,6.73
2023-01-17T16:30:26.748Z,6.71
2023-01-17T16:32:49.894Z,6.61
2023-01-17T16:35:20.993Z,6.57
2023-01-17T16:37:43.690Z,6.50
2023-01-17T16:40:07.245Z,6.49
2023-01-17T16:42:29.923Z,6.47
2023-01-17T16:44:52.464Z,6.39
2023-01-17T16:47:15.229Z,6.36
2023-01-17T16:49:37.946Z,6.32
2023-01-17T16:52:01.109Z,6.29
2023-01-17T16:54:24.108Z,6.28
2023-01-17T16:56:47.100Z,6.23
2023-01-17T16:59:10.529Z,6.22
2023-01-17T17:01:33.899Z,6.18
2023-01-17T17:03:56.893Z,6.16
2023-01-17T17:06:20.046Z,6.12
2023-01-17T17:08:43.375Z,6.09
2023-01-17T17:11:21.338Z,6.11
2023-01-17T17:13:46.534Z,6.08
2023-01-17T17:16:33.094Z,6.11
2023-01-17T17:19:05.269Z,6.05
2023-01-17T17:21:29.992Z,6.09
2023-01-17T17:23:56.899Z,6.05
2023-01-17T17:26:19.574Z,6.05
2023-01-17T17:28:42.212Z,6.08
2023-01-17T17:31:12.466Z,6.06
2023-01-17T17:33:35.405Z,6.04
2023-01-17T17:36:03.305Z,6.05
2023-01-17T17:38:27.094Z,5.99
2023-01-17T17:40:49.740Z,5.98
2023-01-17T17:43:13.249Z,5.97
2023-01-17T17:45:36.385Z,5.95
2023-01-17T17:47:59.389Z,5.92
2023-01-17T17:50:22.201Z,5.97
2023-01-17T17:52:45.047Z,5.94
2023-01-17T17:55:08.002Z,5.91
2023-01-17T17:57:30.938Z,5.91
2023-01-17T17:59:56.744Z,5.85
2023-01-17T18:02:19.669Z,5.90
2023-01-17T18:04:42.372Z,5.84
2023-01-17T18:07:05.416Z,5.83
2023-01-17T18:09:28.788Z,5.87
2023-01-17T18:11:51.709Z,5.79
2023-01-17T18:14:15.220Z,5.78
2023-01-17T18:16:41.858Z,5.79
2023-01-17T18:19:05.407Z,5.74
2023-01-17T18:21:33.127Z,5.71
2023-01-17T18:23:59.837Z,5.70
2023-01-17T18:26:25.475Z,5.67
2023-01-17T18:28:48.791Z,5.73
2023-01-17T18:31:12.301Z,5.71
2023-01-17T18:33:38.085Z,5.71
2023-01-17T18:36:03.808Z,5.77
2023-01-17T18:38:38.457Z,5.78
2023-01-17T18:41:10.836Z,5.78
2023-01-17T18:43:34.424Z,5.75
2023-01-17T18:45:57.813Z,5.74
2023-01-17T18:48:20.949Z,5.73
2023-01-17T18:51:05.263Z,5.77
2023-01-17T18:53:30.489Z,5.75
2023-01-17T18:55:58.344Z,5.74
2023-01-17T18:58:22.541Z,5.65
2023-01-17T19:00:45.488Z,5.65
2023-01-17T19:03:08.326Z,5.63
2023-01-17T19:05:31.249Z,5.63
2023-01-17T19:07:54.399Z,5.56
2023-01-17T19:10:19.830Z,5.53
2023-01-17T19:12:43.145Z,5.56
2023-01-17T19:15:06.604Z,5.58
2023-01-17T19:17:29.313Z,5.56
2023-01-17T19:19:52.033Z,5.53
2023-01-17T19:22:15.129Z,5.50
2023-01-17T19:24:38.522Z,5.50
2023-01-17T19:27:02.703Z,5.50
2023-01-17T19:29:27.239Z,5.51
2023-01-17T19:31:53.452Z,5.50
2023-01-17T19:34:18.942Z,5.43
2023-01-17T19:36:42.758Z,5.39
2023-01-17T19:39:09.510Z,5.35
2023-01-17T19:41:36.774Z,5.29
2023-01-17T19:44:06.481Z,5.32
2023-01-17T19:46:29.507Z,5.33
2023-01-17T19:48:52.928Z,5.25
2023-01-17T19:51:16.810Z,5.29
2023-01-17T19:53:41.396Z,5.33
2023-01-17T19:56:09.666Z,5.33
2023-01-17T19:58:32.419Z,5.30
2023-01-17T20:01:17.224Z,5.32
2023-01-17T20:03:42.439Z,5.30
2023-01-17T20:06:06.886Z,5.35
2023-01-17T20:08:29.758Z,5.37
2023-01-17T20:10:52.431Z,5.35
2023-01-17T20:13:15.497Z,5.36
2023-01-17T20:15:38.677Z,5.43
2023-01-17T20:18:02.321Z,5.36
2023-01-17T20:20:24.904Z,5.29
2023-01-17T20:22:47.715Z,5.32
2023-01-17T20:25:12.311Z,5.39
2023-01-17T20:27:35.242Z,5.43
2023-01-17T20:30:03.217Z,5.42
2023-01-17T20:32:31.099Z,5.37
2023-01-17T20:34:53.838Z,5.39
2023-01-17T20:37:16.362Z,5.40
2023-01-17T20:39:39.390Z,5.35
2023-01-17T20:42:02.812Z,5.36
2023-01-17T20:44:25.589Z,5.30
2023-01-17T20:46:48.298Z,5.33
2023-01-17T20:49:15.191Z,5.35
2023-01-17T20:51:39.882Z,5.37
2023-01-17T20:54:03.664Z,5.33
2023-01-17T20:56:27.847Z,5.33
2023-01-17T20:58:54.300Z,5.36
2023-01-17T21:01:21.214Z,5.27
2023-01-17T21:03:44.200Z,5.25
2023-01-17T21:06:09.644Z,5.20
2023-01-17T21:08:34.695Z,5.16
2023-01-17T21:10:57.587Z,5.08
2023-01-17T21:13:20.725Z,5.04
2023-01-17T21:15:46.678Z,5.00
2023-01-17T21:18:09.975Z,4.99
2023-01-17T21:20:34.774Z,5.06
2023-01-17T21:22:57.282Z,5.12
2023-01-17T21:25:20.962Z,5.12
2023-01-17T21:27:43.649Z,5.11
2023-01-17T21:30:06.891Z,5.15
2023-01-17T21:32:30.462Z,5.13
2023-01-17T21:34:53.174Z,5.11
2023-01-17T21:37:15.756Z,5.08
2023-01-17T21:39:39.216Z,5.12
2023-01-17T21:42:01.748Z,5.13
2023-01-17T21:44:24.461Z,5.12
2023-01-17T21:46:47.886Z,5.09
2023-01-17T21:49:11.979Z,5.06
2023-01-17T21:52:03.665Z,5.02
2023-01-17T21:54:46.876Z,5.06
2023-01-17T21:57:29.334Z,5.05
2023-01-17T21:59:52.208Z,4.95
2023-01-17T22:02:16.337Z,4.92
2023-01-17T22:04:39.553Z,4.91
2023-01-17T22:07:02.083Z,4.87
2023-01-17T22:09:24.865Z,4.87
2023-01-17T22:11:47.484Z,4.91
2023-01-17T22:14:10.241Z,4.87
2023-01-17T22:16:33.259Z,4.81
2023-01-17T22:18:56.531Z,4.81
2023-01-17T22:21:25.401Z,4.81
2023-01-17T22:23:51.731Z,4.79
2023-01-17T22:26:14.865Z,4.88
2023-01-17T22:29:02.381Z,4.92
2023-01-17T22:31:27.000Z,4.95
2023-01-17T22:34:07.826Z,5.05
2023-01-17T22:36:34.225Z,4.98
2023-01-17T22:38:56.940Z,5.09
2023-01-17T22:41:28.000Z,5.09
2023-01-17T22:43:53.087Z,5.09
2023-01-17T22:46:21.192Z,5.23
2023-01-17T22:48:44.517Z,5.19
2023-01-17T22:51:09.895Z,5.19
2023-01-17T22:53:32.855Z,5.16
2023-01-17T22:56:03.643Z,5.19
2023-01-17T22:58:28.740Z,5.30
2023-01-17T23:00:51.335Z,5.40
2023-01-17T23:03:14.043Z,5.54
2023-01-17T23:05:46.472Z,5.33
2023-01-17T23:08:09.100Z,5.33
2023-01-17T23:10:50.568Z,5.50
2023-01-17T23:13:13.199Z,5.70
2023-01-17T23:15:56.624Z,5.87
2023-01-17T23:18:37.797Z,5.97
2023-01-17T23:21:00.451Z,6.12
2023-01-17T23:23:23.101Z,6.23
2023-01-17T23:25:45.765Z,6.36
2023-01-17T23:28:11.730Z,6.46
2023-01-17T23:30:39.508Z,6.51
2023-01-17T23:33:03.820Z,6.47
2023-01-17T23:35:31.727Z,6.49
2023-01-17T23:38:13.638Z,6.26
2023-01-17T23:40:38.083Z,6.06
2023-01-17T23:43:19.044Z,5.99
2023-01-17T23:45:41.816Z,5.94
2023-01-17T23:48:09.623Z,5.95
2023-01-17T23:50:33.498Z,5.87
2023-01-17T23:52:56.430Z,5.95
2023-01-17T23:55:19.279Z,5.94
2023-01-17T23:57:41.789Z,5.90
